createdAt,value
2018-09-01T00:01:04.130Z,47.20
2018-09-01T00:03:32.925Z,47.20
2018-09-01T00:06:01.729Z,47.20
2018-09-01T00:08:30.526Z,47.20
2018-09-01T00:10:59.353Z,47.20
2018-09-01T00:13:28.157Z,46.90
2018-09-01T00:15:57.374Z,47.00
2018-09-01T00:18:26.176Z,47.00
2018-09-01T00:20:55.366Z,46.80
2018-09-01T00:23:24.216Z,46.90
2018-09-01T00:25:53.014Z,46.80
2018-09-01T00:28:21.810Z,46.80
2018-09-01T00:30:53.643Z,46.80
2018-09-01T00:33:22.458Z,46.80
2018-09-01T00:35:51.370Z,46.80
2018-09-01T00:38:25.708Z,46.80
2018-09-01T00:40:54.504Z,46.80
2018-09-01T00:43:23.290Z,46.80
2018-09-01T00:45:52.104Z,46.80
2018-09-01T00:48:20.902Z,46.80
2018-09-01T00:50:50.063Z,46.80
2018-09-01T00:53:18.875Z,46.70
2018-09-01T00:55:47.706Z,46.70
2018-09-01T00:58:16.494Z,46.80
2018-09-01T01:00:45.756Z,46.80
2018-09-01T01:03:14.546Z,46.80
2018-09-01T01:05:43.382Z,46.90
2018-09-01T01:08:12.199Z,47.00
2018-09-01T01:10:41.005Z,47.00
2018-09-01T01:13:09.830Z,47.10
2018-09-01T01:15:38.641Z,47.10
2018-09-01T01:18:07.562Z,47.20
2018-09-01T01:20:36.389Z,47.00
2018-09-01T01:23:05.930Z,47.20
2018-09-01T01:25:34.731Z,47.30
2018-09-01T01:28:03.550Z,48.10
2018-09-01T01:30:32.384Z,47.50
2018-09-01T01:33:01.194Z,47.60
2018-09-01T01:35:30.017Z,47.70
2018-09-01T01:37:58.881Z,48.00
2018-09-01T01:40:27.678Z,47.90
2018-09-01T01:42:56.462Z,48.00
2018-09-01T01:45:25.660Z,48.00
2018-09-01T01:47:54.500Z,48.10
2018-09-01T01:50:23.279Z,48.30
2018-09-01T01:52:52.419Z,48.30
2018-09-01T01:55:21.235Z,48.50
2018-09-01T01:57:52.922Z,48.70
2018-09-01T02:00:21.732Z,48.70
2018-09-01T02:02:50.527Z,48.80
2018-09-01T02:05:20.434Z,49.00
2018-09-01T02:07:50.370Z,49.10
2018-09-01T02:10:19.179Z,49.20
2018-09-01T02:12:47.976Z,49.40
2018-09-01T02:15:16.785Z,49.60
2018-09-01T02:17:45.633Z,49.80
2018-09-01T02:20:14.471Z,49.80
2018-09-01T02:22:43.269Z,49.90
2018-09-01T02:25:18.523Z,50.20
2018-09-01T02:27:47.319Z,50.40
2018-09-01T02:30:16.147Z,50.60
2018-09-01T02:32:44.972Z,50.80
2018-09-01T02:35:13.781Z,50.90
2018-09-01T02:37:42.580Z,51.00
2018-09-01T02:40:11.412Z,51.20
2018-09-01T02:42:40.202Z,51.40
2018-09-01T02:45:09.002Z,51.60
2018-09-01T02:47:38.186Z,51.70
2018-09-01T02:55:06.080Z,50.40
2018-09-01T02:57:34.873Z,52.10
2018-09-01T03:00:06.703Z,52.40
2018-09-01T03:02:41.436Z,52.60
2018-09-01T03:05:10.259Z,52.70
2018-09-01T03:07:39.054Z,52.80
2018-09-01T03:10:08.707Z,52.90
2018-09-01T03:12:37.514Z,53.10
2018-09-01T03:15:07.843Z,53.10
2018-09-01T03:17:36.639Z,53.30
2018-09-01T03:20:05.479Z,53.30
2018-09-01T03:22:34.271Z,53.40
2018-09-01T03:25:03.345Z,53.50
2018-09-01T03:27:32.151Z,53.50
2018-09-01T03:30:00.995Z,53.80
2018-09-01T03:32:29.848Z,53.90
2018-09-01T03:34:58.695Z,54.10
2018-09-01T03:37:27.503Z,54.10
2018-09-01T03:39:56.304Z,54.20
2018-09-01T03:42:25.123Z,54.20
2018-09-01T03:44:53.924Z,54.30
2018-09-01T03:47:23.215Z,54.30
2018-09-01T03:49:51.989Z,54.60
2018-09-01T03:52:20.816Z,54.60
2018-09-01T03:54:49.617Z,54.70
2018-09-01T03:57:18.993Z,54.70
2018-09-01T03:59:47.778Z,54.90
2018-09-01T04:02:16.607Z,55.00
2018-09-01T04:04:45.420Z,55.10
2018-09-01T04:07:14.245Z,55.10
2018-09-01T04:09:43.331Z,55.20
2018-09-01T04:12:12.140Z,55.20
2018-09-01T04:14:40.931Z,55.40
2018-09-01T04:17:09.736Z,55.50
2018-09-01T04:19:38.574Z,55.50
2018-09-01T04:22:07.429Z,55.50
2018-09-01T04:24:36.222Z,56.10
2018-09-01T04:27:05.025Z,56.30
2018-09-01T04:29:33.816Z,55.80
2018-09-01T04:32:03.273Z,56.00
2018-09-01T04:34:32.043Z,56.00
2018-09-01T04:37:00.841Z,56.10
2018-09-01T04:39:29.645Z,56.20
2018-09-01T04:41:58.479Z,56.80
2018-09-01T04:44:27.267Z,56.30
2018-09-01T04:46:56.156Z,56.40
2018-09-01T04:49:24.899Z,56.40
2018-09-01T04:51:53.707Z,56.60
2018-09-01T04:54:22.868Z,56.60
2018-09-01T04:56:51.652Z,56.70
2018-09-01T04:59:21.022Z,57.40
2018-09-01T05:01:49.865Z,56.90
2018-09-01T05:04:18.651Z,57.00
2018-09-01T05:06:47.463Z,57.00
2018-09-01T05:09:16.272Z,57.20
2018-09-01T05:11:45.061Z,57.30
2018-09-01T05:14:13.890Z,57.30
2018-09-01T05:16:42.985Z,57.40
2018-09-01T05:19:11.790Z,57.50
2018-09-01T05:21:40.577Z,58.00
2018-09-01T05:24:09.392Z,57.50
2018-09-01T05:26:38.189Z,57.60
2018-09-01T05:29:06.997Z,57.70
2018-09-01T05:31:35.802Z,57.80
2018-09-01T05:34:04.588Z,57.70
2018-09-01T05:36:33.461Z,57.70
2018-09-01T05:39:02.505Z,57.80
2018-09-01T05:41:31.315Z,57.80
2018-09-01T05:44:00.099Z,57.80
2018-09-01T05:46:28.921Z,57.80
2018-09-01T05:48:57.723Z,57.80
2018-09-01T05:51:26.542Z,57.70
2018-09-01T05:53:55.364Z,57.70
2018-09-01T05:56:24.175Z,58.20
2018-09-01T05:58:52.995Z,57.50
2018-09-01T06:01:22.530Z,57.50
2018-09-01T06:03:51.314Z,57.50
2018-09-01T06:06:20.200Z,57.50
2018-09-01T06:08:48.985Z,57.30
2018-09-01T06:11:17.790Z,57.20
2018-09-01T06:13:46.620Z,57.10
2018-09-01T06:16:15.448Z,57.10
2018-09-01T06:18:44.253Z,57.10
2018-09-01T06:21:13.037Z,57.00
2018-09-01T06:23:42.110Z,57.10
2018-09-01T06:26:10.923Z,57.10
2018-09-01T06:28:44.518Z,57.00
2018-09-01T06:31:13.307Z,57.00
2018-09-01T06:33:42.086Z,56.90
2018-09-01T06:36:10.889Z,57.30
2018-09-01T06:38:39.673Z,56.70
2018-09-01T06:41:08.483Z,56.80
2018-09-01T06:43:37.511Z,56.60
2018-09-01T06:46:06.716Z,56.60
2018-09-01T06:48:35.545Z,56.30
2018-09-01T06:51:04.341Z,56.10
2018-09-01T06:53:33.139Z,56.10
2018-09-01T06:56:01.961Z,55.80
2018-09-01T06:58:30.791Z,55.50
2018-09-01T07:00:59.574Z,55.40
2018-09-01T07:03:28.777Z,55.30
2018-09-01T07:05:57.862Z,55.10
2018-09-01T07:08:26.770Z,55.10
2018-09-01T07:10:56.209Z,55.10
2018-09-01T07:13:48.532Z,55.50
2018-09-01T07:16:17.325Z,55.00
2018-09-01T07:18:46.094Z,55.00
2018-09-01T07:21:15.022Z,54.80
2018-09-01T07:23:43.795Z,54.80
2018-09-01T07:26:12.572Z,54.50
2018-09-01T07:28:41.426Z,54.40
2018-09-01T07:31:10.693Z,54.10
2018-09-01T07:33:39.528Z,54.00
2018-09-01T07:36:08.355Z,54.00
2018-09-01T07:38:37.149Z,54.40
2018-09-01T07:41:06.367Z,54.20
2018-09-01T07:43:35.523Z,54.10
2018-09-01T07:46:04.347Z,54.00
2018-09-01T07:48:33.127Z,54.00
2018-09-01T07:51:02.199Z,54.00
2018-09-01T07:53:30.985Z,53.80
2018-09-01T07:55:59.866Z,54.10
2018-09-01T07:58:28.576Z,53.90
2018-09-01T08:00:57.415Z,54.00
2018-09-01T08:03:26.219Z,54.00
2018-09-01T08:05:55.519Z,53.80
2018-09-01T08:08:24.359Z,53.80
2018-09-01T08:10:53.235Z,53.80
2018-09-01T08:13:22.075Z,53.80
2018-09-01T08:15:50.907Z,53.80
2018-09-01T08:18:19.743Z,53.80
2018-09-01T08:20:48.569Z,53.60
2018-09-01T08:23:17.358Z,53.60
2018-09-01T08:25:46.178Z,53.20
2018-09-01T08:28:15.140Z,53.30
2018-09-01T08:30:44.017Z,53.30
2018-09-01T08:33:12.814Z,53.20
2018-09-01T08:35:41.625Z,53.00
2018-09-01T08:38:10.458Z,53.00
2018-09-01T08:40:39.325Z,52.90
2018-09-01T08:43:08.122Z,52.70
2018-09-01T08:45:36.963Z,52.60
2018-09-01T08:48:06.160Z,52.50
2018-09-01T08:50:35.455Z,52.50
2018-09-01T08:53:04.343Z,53.00
2018-09-01T08:55:33.133Z,52.80
2018-09-01T08:58:01.963Z,52.00
2018-09-01T09:00:30.871Z,51.90
2018-09-01T09:02:59.945Z,51.80
2018-09-01T09:05:28.831Z,51.30
2018-09-01T09:07:58.007Z,51.10
2018-09-01T09:10:26.807Z,51.20
2018-09-01T09:12:56.154Z,51.10
2018-09-01T09:15:24.979Z,51.00
2018-09-01T09:17:53.798Z,50.90
2018-09-01T09:20:22.647Z,50.70
2018-09-01T09:22:51.454Z,50.50
2018-09-01T09:25:20.262Z,50.20
2018-09-01T09:27:49.046Z,50.20
2018-09-01T09:30:17.970Z,50.30
2018-09-01T09:32:46.863Z,50.10
2018-09-01T09:35:15.972Z,49.80
2018-09-01T09:37:44.783Z,49.70
2018-09-01T09:40:13.633Z,49.20
2018-09-01T09:42:42.454Z,48.90
2018-09-01T09:45:11.341Z,48.80
2018-09-01T09:47:40.141Z,48.50
2018-09-01T09:50:08.941Z,48.10
2018-09-01T09:52:37.743Z,47.70
2018-09-01T09:55:08.401Z,47.40
2018-09-01T09:57:37.335Z,47.10
2018-09-01T10:00:08.611Z,47.20
2018-09-01T10:02:37.407Z,47.30
2018-09-01T10:05:08.108Z,46.70
2018-09-01T10:07:36.882Z,46.60
2018-09-01T10:10:06.003Z,46.60
2018-09-01T10:12:34.801Z,46.50
2018-09-01T10:15:03.645Z,45.60
2018-09-01T10:17:32.439Z,45.30
2018-09-01T10:20:01.626Z,45.40
2018-09-01T10:22:30.374Z,45.50
2018-09-01T10:24:59.164Z,44.70
2018-09-01T10:27:27.987Z,44.80
2018-09-01T10:29:59.647Z,44.70
2018-09-01T10:32:28.466Z,44.60
2018-09-01T10:34:57.286Z,44.50
2018-09-01T10:37:26.207Z,43.70
2018-09-01T10:39:54.996Z,43.00
2018-09-01T10:42:23.959Z,43.60
2018-09-01T10:44:52.775Z,43.60
2018-09-01T10:47:21.568Z,43.40
2018-09-01T10:49:50.360Z,43.50
2018-09-01T10:52:19.419Z,43.80
2018-09-01T10:54:48.202Z,43.70
2018-09-01T10:57:17.054Z,41.40
2018-09-01T10:59:45.940Z,41.70
2018-09-01T11:02:14.697Z,40.30
2018-09-01T11:04:43.648Z,40.20
2018-09-01T11:07:12.454Z,40.50
2018-09-01T11:09:41.250Z,40.50
2018-09-01T11:12:10.462Z,40.90
2018-09-01T11:14:39.271Z,41.40
2018-09-01T11:17:08.057Z,41.40
2018-09-01T11:19:36.866Z,41.50
2018-09-01T11:22:05.737Z,41.60
2018-09-01T11:24:34.527Z,41.80
2018-09-01T11:27:03.457Z,41.60
2018-09-01T11:29:32.233Z,42.00
2018-09-01T11:32:01.165Z,42.10
2018-09-01T11:34:29.988Z,41.80
2018-09-01T11:36:58.837Z,41.70
2018-09-01T11:39:27.640Z,41.40
2018-09-01T11:41:56.551Z,41.10
2018-09-01T11:44:25.360Z,41.00
2018-09-01T11:46:54.172Z,40.90
2018-09-01T11:49:23.082Z,40.80
2018-09-01T11:51:52.188Z,40.70
2018-09-01T11:54:20.995Z,40.90
2018-09-01T11:56:49.815Z,41.00
2018-09-01T11:59:18.603Z,40.90
2018-09-01T12:01:47.393Z,40.70
2018-09-01T12:04:16.234Z,40.80
2018-09-01T12:06:45.040Z,39.90
2018-09-01T12:09:13.956Z,39.90
2018-09-01T12:11:43.017Z,40.00
2018-09-01T12:14:12.240Z,40.00
2018-09-01T12:16:47.883Z,39.50
2018-09-01T12:19:16.691Z,39.30
2018-09-01T12:21:45.513Z,39.60
2018-09-01T12:24:14.417Z,39.80
2018-09-01T12:26:43.242Z,40.00
2018-09-01T12:29:12.052Z,39.80
2018-09-01T12:31:41.188Z,39.70
2018-09-01T12:34:10.042Z,40.20
2018-09-01T12:36:38.858Z,39.50
2018-09-01T12:39:07.694Z,39.50
2018-09-01T12:41:36.479Z,39.10
2018-09-01T12:44:05.319Z,39.20
2018-09-01T12:46:34.113Z,39.30
2018-09-01T12:49:03.107Z,39.50
2018-09-01T12:51:31.929Z,39.70
2018-09-01T12:54:01.122Z,39.80
2018-09-01T12:56:30.110Z,39.70
2018-09-01T12:58:58.935Z,39.80
2018-09-01T13:01:34.888Z,39.80
2018-09-01T13:04:03.707Z,39.70
2018-09-01T13:06:32.518Z,39.60
2018-09-01T13:09:01.455Z,40.10
2018-09-01T13:11:30.250Z,39.30
2018-09-01T13:13:59.061Z,39.20
2018-09-01T13:16:28.602Z,39.00
2018-09-01T13:18:57.399Z,39.20
2018-09-01T13:21:26.211Z,39.10
2018-09-01T13:23:55.063Z,39.20
2018-09-01T13:26:23.963Z,39.00
2018-09-01T13:28:52.839Z,38.80
2018-09-01T13:31:21.716Z,38.70
2018-09-01T13:33:50.521Z,38.70
2018-09-01T13:36:19.635Z,38.70
2018-09-01T13:38:48.620Z,38.50
2018-09-01T13:41:17.428Z,38.40
2018-09-01T13:43:46.260Z,38.60
2018-09-01T13:46:21.540Z,38.70
2018-09-01T13:48:50.348Z,38.80
2018-09-01T13:51:19.359Z,38.90
2018-09-01T13:53:48.238Z,39.40
2018-09-01T13:56:17.059Z,38.80
2018-09-01T13:58:45.848Z,38.80
2018-09-01T14:01:15.100Z,39.40
2018-09-01T14:03:43.916Z,39.00
2018-09-01T14:06:12.708Z,38.90
2018-09-01T14:08:41.833Z,38.80
2018-09-01T14:11:10.628Z,38.80
2018-09-01T14:13:39.426Z,38.70
2018-09-01T14:16:08.278Z,38.60
2018-09-01T14:18:37.443Z,38.50
2018-09-01T14:21:06.484Z,38.30
2018-09-01T14:23:35.491Z,38.30
2018-09-01T14:26:04.299Z,38.40
2018-09-01T14:28:33.093Z,38.10
2018-09-01T14:31:01.940Z,38.00
2018-09-01T14:33:30.744Z,37.70
2018-09-01T14:36:04.073Z,37.60
2018-09-01T14:38:28.383Z,37.60
2018-09-01T14:40:57.178Z,37.50
2018-09-01T14:43:26.031Z,37.50
2018-09-01T14:45:54.963Z,37.50
2018-09-01T14:48:23.810Z,37.60
2018-09-01T14:50:52.616Z,37.80
2018-09-01T14:53:21.560Z,37.70
2018-09-01T14:55:50.345Z,37.80
2018-09-01T14:58:19.149Z,37.60
2018-09-01T15:00:47.972Z,37.60
2018-09-01T15:03:16.802Z,37.40
2018-09-01T15:05:45.601Z,37.20
2018-09-01T15:08:14.718Z,37.20
2018-09-01T15:10:43.549Z,37.40
2018-09-01T15:13:12.326Z,37.20
2018-09-01T15:15:41.174Z,37.10
2018-09-01T15:18:10.008Z,36.80
2018-09-01T15:20:39.518Z,36.80
2018-09-01T15:23:08.323Z,36.80
2018-09-01T15:25:37.234Z,36.80
2018-09-01T15:28:06.093Z,36.90
2018-09-01T15:30:35.166Z,37.00
2018-09-01T15:33:03.955Z,37.00
2018-09-01T15:35:32.935Z,37.10
2018-09-01T15:38:01.593Z,37.10
2018-09-01T15:40:30.392Z,37.10
2018-09-01T15:42:59.243Z,37.10
2018-09-01T15:45:28.414Z,37.00
2018-09-01T15:47:57.248Z,37.00
2018-09-01T15:50:26.127Z,36.80
2018-09-01T15:52:55.298Z,36.90
2018-09-01T15:55:24.091Z,36.80
2018-09-01T15:57:52.909Z,36.50
2018-09-01T16:00:21.751Z,37.00
2018-09-01T16:02:50.583Z,36.40
2018-09-01T16:05:19.395Z,36.40
2018-09-01T16:07:48.215Z,36.60
2018-09-01T16:10:17.080Z,36.70
2018-09-01T16:12:45.940Z,36.60
2018-09-01T16:15:15.239Z,36.40
2018-09-01T16:17:43.999Z,36.60
2018-09-01T16:20:12.811Z,36.60
2018-09-01T16:22:41.914Z,36.70
2018-09-01T16:25:10.728Z,36.80
2018-09-01T16:27:39.518Z,36.90
2018-09-01T16:30:08.960Z,37.00
2018-09-01T16:32:37.821Z,37.00
2018-09-01T16:35:08.616Z,37.30
2018-09-01T16:37:37.699Z,37.20
2018-09-01T16:40:11.521Z,37.20
2018-09-01T16:42:40.343Z,37.30
2018-09-01T16:45:09.335Z,37.40
2018-09-01T16:47:38.169Z,37.50
2018-09-01T16:50:08.241Z,37.70
2018-09-01T16:52:37.118Z,37.70
2018-09-01T16:55:06.039Z,37.60
2018-09-01T16:57:34.991Z,37.70
2018-09-01T17:00:03.948Z,37.70
2018-09-01T17:02:32.814Z,37.70
2018-09-01T17:05:01.667Z,37.90
2018-09-01T17:07:30.455Z,38.00
2018-09-01T17:09:59.241Z,38.10
2018-09-01T17:12:28.049Z,38.10
2018-09-01T17:14:56.879Z,38.10
2018-09-01T17:17:25.683Z,38.10
2018-09-01T17:19:54.666Z,38.20
2018-09-01T17:22:23.475Z,38.30
2018-09-01T17:24:52.660Z,38.40
2018-09-01T17:27:21.480Z,38.40
2018-09-01T17:29:50.287Z,38.50
2018-09-01T17:32:19.081Z,38.50
2018-09-01T17:34:47.914Z,38.40
2018-09-01T17:37:16.709Z,38.70
2018-09-01T17:39:45.495Z,38.70
2018-09-01T17:42:14.402Z,38.80
2018-09-01T17:44:43.178Z,38.60
2018-09-01T17:47:11.971Z,38.80
2018-09-01T17:49:40.802Z,38.70
2018-09-01T17:52:09.625Z,39.40
2018-09-01T17:54:38.444Z,38.60
2018-09-01T17:57:07.328Z,38.70
2018-09-01T17:59:36.167Z,38.70
2018-09-01T18:02:05.031Z,38.80
2018-09-01T18:04:33.963Z,38.80
2018-09-01T18:07:02.795Z,38.90
2018-09-01T18:09:31.635Z,39.20
2018-09-01T18:12:00.441Z,39.30
2018-09-01T18:14:29.270Z,39.20
2018-09-01T18:16:58.150Z,39.20
2018-09-01T18:19:27.052Z,39.50
2018-09-01T18:21:55.833Z,39.80
2018-09-01T18:24:24.630Z,40.10
2018-09-01T18:26:54.219Z,40.10
2018-09-01T18:29:23.031Z,39.80
2018-09-01T18:31:51.842Z,40.00
2018-09-01T18:34:20.655Z,40.10
2018-09-01T18:36:52.355Z,40.10
2018-09-01T18:39:21.233Z,40.10
2018-09-01T18:41:50.072Z,40.40
2018-09-01T18:44:19.939Z,40.30
2018-09-01T18:46:49.142Z,40.40
2018-09-01T18:49:17.983Z,40.50
2018-09-01T18:51:46.817Z,40.40
2018-09-01T18:54:15.764Z,40.40
2018-09-01T18:56:44.490Z,40.60
2018-09-01T18:59:13.311Z,40.70
2018-09-01T19:01:42.121Z,40.80
2018-09-01T19:04:10.966Z,40.80
2018-09-01T19:06:39.778Z,40.80
2018-09-01T19:09:08.723Z,41.20
2018-09-01T19:11:37.807Z,41.00
2018-09-01T19:14:06.723Z,41.00
2018-09-01T19:16:35.572Z,41.20
2018-09-01T19:19:04.371Z,41.20
2018-09-01T19:21:33.188Z,41.30
2018-09-01T19:24:01.999Z,41.30
2018-09-01T19:26:30.845Z,41.40
2018-09-01T19:28:59.978Z,41.50
2018-09-01T19:31:29.171Z,41.40
2018-09-01T19:33:57.993Z,41.30
2018-09-01T19:36:26.789Z,42.00
2018-09-01T19:38:55.625Z,41.50
2018-09-01T19:41:24.444Z,41.60
2018-09-01T19:43:53.244Z,41.50
2018-09-01T19:46:22.123Z,41.40
2018-09-01T19:48:50.927Z,41.30
2018-09-01T19:51:19.858Z,41.20
2018-09-01T19:53:48.976Z,41.20
2018-09-01T19:56:17.805Z,41.30
2018-09-01T19:58:46.594Z,41.30
2018-09-01T20:01:15.448Z,41.60
2018-09-01T20:03:44.301Z,41.70
2018-09-01T20:06:13.122Z,41.50
2018-09-01T20:08:41.965Z,41.50
2018-09-01T20:11:10.775Z,41.50
2018-09-01T20:13:39.619Z,41.50
2018-09-01T20:16:08.699Z,41.80
2018-09-01T20:18:37.504Z,41.80
2018-09-01T20:21:06.358Z,41.80
2018-09-01T20:23:35.185Z,42.00
2018-09-01T20:26:04.086Z,42.00
2018-09-01T20:28:32.876Z,42.20
2018-09-01T20:31:01.858Z,42.30
2018-09-01T20:33:30.677Z,42.40
2018-09-01T20:35:59.509Z,42.60
2018-09-01T20:38:29.336Z,42.60
2018-09-01T20:40:58.155Z,42.80
2018-09-01T20:43:26.967Z,42.90
2018-09-01T20:45:55.836Z,43.00
2018-09-01T20:48:24.637Z,43.10
2018-09-01T20:50:53.457Z,43.10
2018-09-01T20:53:22.291Z,43.10
2018-09-01T20:55:51.121Z,43.10
2018-09-01T20:58:19.941Z,43.40
2018-09-01T21:00:48.868Z,43.40
2018-09-01T21:03:17.840Z,43.40
2018-09-01T21:05:46.638Z,43.60
2018-09-01T21:08:15.470Z,43.70
2018-09-01T21:10:44.301Z,43.70
2018-09-01T21:13:13.091Z,43.70
2018-09-01T21:15:42.190Z,43.80
2018-09-01T21:18:11.025Z,43.80
2018-09-01T21:20:39.876Z,43.90
2018-09-01T21:23:08.673Z,43.90
2018-09-01T21:25:37.463Z,44.00
2018-09-01T21:28:06.385Z,44.00
2018-09-01T21:30:35.249Z,44.10
2018-09-01T21:33:04.564Z,44.00
2018-09-01T21:35:33.346Z,44.10
2018-09-01T21:38:02.327Z,44.20
2018-09-01T21:40:31.126Z,44.20
2018-09-01T21:42:59.932Z,44.20
2018-09-01T21:45:28.735Z,44.30
2018-09-01T21:47:57.563Z,44.20
2018-09-01T21:50:26.383Z,44.30
2018-09-01T21:52:55.285Z,44.30
2018-09-01T21:55:24.081Z,44.40
2018-09-01T21:57:52.897Z,44.40
2018-09-01T22:00:22.339Z,44.40
2018-09-01T22:02:51.198Z,44.50
2018-09-01T22:05:20.119Z,44.60
2018-09-01T22:07:49.022Z,44.60
2018-09-01T22:10:17.846Z,45.20
2018-09-01T22:12:46.637Z,44.70
2018-09-01T22:15:15.497Z,44.70
2018-09-01T22:17:44.288Z,44.80
2018-09-01T22:20:13.129Z,44.70
2018-09-01T22:22:42.354Z,44.70
2018-09-01T22:25:11.164Z,44.70
2018-09-01T22:27:39.955Z,44.90
2018-09-01T22:30:08.780Z,45.40
2018-09-01T22:32:37.577Z,44.90
2018-09-01T22:35:07.961Z,45.00
2018-09-01T22:37:36.822Z,45.10
2018-09-01T22:40:05.678Z,45.20
2018-09-01T22:42:34.457Z,45.30
2018-09-01T22:45:03.602Z,45.50
2018-09-01T22:47:33.915Z,45.60
2018-09-01T22:50:02.720Z,45.80
2018-09-01T22:52:31.552Z,45.80
2018-09-01T22:55:00.524Z,45.90
2018-09-01T22:57:29.364Z,46.10
2018-09-01T22:59:58.223Z,46.30
2018-09-01T23:02:27.021Z,46.50
2018-09-01T23:04:55.835Z,46.70
2018-09-01T23:07:24.950Z,46.90
2018-09-01T23:09:53.746Z,46.90
2018-09-01T23:12:22.522Z,47.10
2018-09-01T23:14:51.414Z,47.10
2018-09-01T23:17:20.221Z,47.40
2018-09-01T23:19:49.063Z,47.40
2018-09-01T23:22:17.900Z,47.70
2018-09-01T23:24:46.718Z,48.00
2018-09-01T23:27:15.518Z,48.20
2018-09-01T23:29:44.655Z,48.60
2018-09-01T23:32:13.451Z,49.00
2018-09-01T23:34:42.347Z,49.20
2018-09-01T23:37:11.656Z,49.40
2018-09-01T23:39:40.449Z,49.60
2018-09-01T23:42:09.257Z,50.00
2018-09-01T23:44:38.068Z,50.20
2018-09-01T23:47:07.007Z,50.70
2018-09-01T23:49:35.796Z,50.90
2018-09-01T23:52:04.765Z,51.20
2018-09-01T23:54:33.608Z,51.30
2018-09-01T23:57:02.405Z,51.50
2018-09-01T23:59:31.243Z,51.80
